METAR Data
IDs: Format: Raw Decoded Include TAF

Data at: 1439 UTC 21 Apr 2021

METAR for:KDBQ (Dubuque Rgnl, IA, US)
Text:KDBQ 211353Z 35009KT 10SM SCT085 03/M07 A3014 RMK AO2 SLP216 T00331072
Temperature: 3.3°C ( 38°F)
Dewpoint: -7.2°C ( 19°F) [RH = 46%]
Pressure (altimeter):30.14 inches Hg (1020.7 mb) [Sea level pressure: 1021.6 mb]
Winds:from the N (350 degrees) at 10 MPH (9 knots; 4.6 m/s)
Visibility:10 or more sm (16+ km)
Ceiling:at least 12,000 feet AGL
Clouds: scattered clouds at 8500 feet AGL